Terminal Aerodrome Forecast
Issued by NWS

Home | Current Version | Previous Version | Text Only | Print | Product List | Glossary Off
Versions: 1 2 3 4 5 6 7 8 9 10 11 12 13 14 15 16 17 18 19 20

000
FTUS43 KICT 231033 AAB
TAFCNU
TAF AMD
KCNU 231033Z 2311/2406 14013KT P6SM SCT030 OVC060
     FM231800 17022G30KT P6SM SCT020 BKN040
     FM232000 17025G35KT P6SM SCT040=

USA.gov is the U.S. government's official web portal to all federal, state and local government web resources and services.